Oregon House, California
Current Conditions -  °F | °C
As of 3:04 PM on Sunday 21 Dec 2014 (Local Time) from KBAB Reporting Station
Clear Clear  
Wind Chill: 64°   Ceiling: Unl
Heat Index: 64°   Visibility: 10mi
Dew Point: 57°   Wind: 7mph
Humidity: 77%   Direction: 190°S
Pressure: 30.23"   Gusts: NA
Location:  39.36°N, 121.28°W
Report Text: KBAB 212304Z AUTO 19006KT 10SM CLR 18/14 A3023 RMK AO2
Loading
Personal Weather Stations






























Interactive Weather Map New forecast layout! Learn more

10-Day Weather Forecast

Advertisements
Track Severe Weather on mobile